LGAD

Details ICAO LGAD (PYR)
Name ANDRAVIDA
Region Greece
Timezone Europe/Athens (UTC+3.0)
Plans Departing 15
Arriving 9
Stats Elevation 55 ft / 17 m (AMSL)
Location 37.920708° 21.292583°
Runways 1
Magnetic Variation 4.184° E
Sunrise 2018-05-22 03:20:59 UTC / 2018-05-22 06:20:59 Local
Sunset 2018-05-22 17:44:51 UTC / 2018-05-22 20:44:51 Local
Advertisement - Login to hide

Runways

ID Width Length Bearing (true) Bearing (mag) Surface Threshold Offset Overrun Length
16 148 ft / 45 m 10,313 ft / 3,143 m 164.62° 160.44° Asphalt 0 ft / 0 m 75 ft / 23 m
34 148 ft / 45 m 10,313 ft / 3,143 m 344.63° 340.45° Asphalt 0 ft / 0 m 75 ft / 23 m

Map

Weather


0- 5 10 15 20 25 30 35+ Temperature / ° C

Clouds and Precipitation
Forecast for 2018-05-22 00:00 UTC. Updated 3 hours ago

Ground ~20,000 ft ~40,000 ft Winds

METAR

LGAD 220220Z 00000KT 9999 FEW080 15/14 Q1013

TAF

Not found

Frequencies

Tower 122.10 MHz TWR
Approach 120.65 MHz APP
Tower 120.65 MHz TWR
Approach 122.10 MHz APP
Warning: Do not use this data for real-world aviation or navigation. No guarantee of current accuracy is given.